sensor_id;sensor_type;location;lat;lon;timestamp;pressure;altitude;pressure_sealevel;temperature;humidity
11314;BME280;5712;48.858;9.206;2022-10-16T00:00:36;98026.28;;;15.70;100.00
11314;BME280;5712;48.858;9.206;2022-10-16T00:03:03;98031.88;;;15.76;100.00
11314;BME280;5712;48.858;9.206;2022-10-16T00:05:30;98030.78;;;15.79;100.00
11314;BME280;5712;48.858;9.206;2022-10-16T00:07:58;98027.13;;;15.80;100.00
11314;BME280;5712;48.858;9.206;2022-10-16T00:10:24;98018.00;;;15.73;100.00
11314;BME280;5712;48.858;9.206;2022-10-16T00:12:51;98026.84;;;15.64;100.00
11314;BME280;5712;48.858;9.206;2022-10-16T00:15:18;98011.56;;;15.56;100.00
11314;BME280;5712;48.858;9.206;2022-10-16T00:17:45;98012.81;;;15.52;100.00
11314;BME280;5712;48.858;9.206;2022-10-16T00:20:11;98020.53;;;15.46;100.00
11314;BME280;5712;48.858;9.206;2022-10-16T00:22:38;98023.31;;;15.44;100.00
11314;BME280;5712;48.858;9.206;2022-10-16T00:25:07;98018.44;;;15.40;100.00
11314;BME280;5712;48.858;9.206;2022-10-16T00:27:34;98010.13;;;15.43;100.00
11314;BME280;5712;48.858;9.206;2022-10-16T00:30:00;98010.44;;;15.40;100.00
11314;BME280;5712;48.858;9.206;2022-10-16T00:32:27;98014.34;;;15.36;100.00
11314;BME280;5712;48.858;9.206;2022-10-16T00:34:54;98019.19;;;15.31;100.00
11314;BME280;5712;48.858;9.206;2022-10-16T00:37:20;98015.97;;;15.27;100.00
11314;BME280;5712;48.858;9.206;2022-10-16T00:39:47;98023.94;;;15.18;100.00
11314;BME280;5712;48.858;9.206;2022-10-16T00:42:17;98036.28;;;15.19;100.00
11314;BME280;5712;48.858;9.206;2022-10-16T00:44:50;98036.69;;;15.14;100.00
11314;BME280;5712;48.858;9.206;2022-10-16T00:47:21;98034.59;;;15.18;100.00
11314;BME280;5712;48.858;9.206;2022-10-16T00:49:50;98034.59;;;15.18;100.00
11314;BME280;5712;48.858;9.206;2022-10-16T00:52:19;98026.91;;;15.15;100.00
11314;BME280;5712;48.858;9.206;2022-10-16T00:54:46;98029.56;;;15.15;100.00
11314;BME280;5712;48.858;9.206;2022-10-16T00:57:15;98024.50;;;15.12;100.00
11314;BME280;5712;48.858;9.206;2022-10-16T00:59:42;98020.28;;;15.09;100.00
11314;BME280;5712;48.858;9.206;2022-10-16T01:02:13;98029.94;;;15.10;100.00
11314;BME280;5712;48.858;9.206;2022-10-16T01:04:42;98028.69;;;15.14;100.00
11314;BME280;5712;48.858;9.206;2022-10-16T01:07:16;98036.28;;;15.19;100.00
11314;BME280;5712;48.858;9.206;2022-10-16T01:09:57;98045.13;;;15.29;100.00
11314;BME280;5712;48.858;9.206;2022-10-16T01:12:35;98045.75;;;15.42;100.00
11314;BME280;5712;48.858;9.206;2022-10-16T01:15:08;98044.94;;;15.51;100.00
11314;BME280;5712;48.858;9.206;2022-10-16T01:17:42;98040.00;;;15.56;100.00
11314;BME280;5712;48.858;9.206;2022-10-16T01:20:16;98046.19;;;15.56;100.00
11314;BME280;5712;48.858;9.206;2022-10-16T01:22:57;98046.63;;;15.61;100.00
11314;BME280;5712;48.858;9.206;2022-10-16T01:25:34;98034.13;;;15.62;100.00
11314;BME280;5712;48.858;9.206;2022-10-16T01:28:05;98034.41;;;15.59;100.00
11314;BME280;5712;48.858;9.206;2022-10-16T01:30:35;98032.19;;;15.54;100.00
11314;BME280;5712;48.858;9.206;2022-10-16T01:33:06;98043.94;;;15.52;100.00
11314;BME280;5712;48.858;9.206;2022-10-16T01:35:38;98041.41;;;15.50;100.00
11314;BME280;5712;48.858;9.206;2022-10-16T01:38:10;98045.88;;;15.50;100.00
11314;BME280;5712;48.858;9.206;2022-10-16T01:40:42;98037.75;;;15.51;100.00
11314;BME280;5712;48.858;9.206;2022-10-16T01:43:15;98029.09;;;15.49;100.00
11314;BME280;5712;48.858;9.206;2022-10-16T01:45:45;98044.94;;;15.51;100.00
11314;BME280;5712;48.858;9.206;2022-10-16T01:48:14;98038.19;;;15.47;100.00
11314;BME280;5712;48.858;9.206;2022-10-16T01:50:44;98033.00;;;15.45;100.00
11314;BME280;5712;48.858;9.206;2022-10-16T01:53:16;98039.19;;;15.46;100.00
11314;BME280;5712;48.858;9.206;2022-10-16T01:55:46;98036.34;;;15.47;100.00
11314;BME280;5712;48.858;9.206;2022-10-16T01:58:15;98022.91;;;15.49;100.00
11314;BME280;5712;48.858;9.206;2022-10-16T02:00:44;98022.63;;;15.52;100.00
11314;BME280;5712;48.858;9.206;2022-10-16T02:03:14;98019.97;;;15.52;100.00
11314;BME280;5712;48.858;9.206;2022-10-16T02:05:45;98021.78;;;15.51;100.00
11314;BME280;5712;48.858;9.206;2022-10-16T02:08:13;98011.00;;;15.53;100.00
11314;BME280;5712;48.858;9.206;2022-10-16T02:10:40;98017.00;;;15.55;100.00
11314;BME280;5712;48.858;9.206;2022-10-16T02:13:10;98025.00;;;15.55;100.00
11314;BME280;5712;48.858;9.206;2022-10-16T02:15:39;98027.41;;;15.58;100.00
11314;BME280;5712;48.858;9.206;2022-10-16T02:18:07;98019.69;;;15.55;100.00
11314;BME280;5712;48.858;9.206;2022-10-16T02:20:40;98021.09;;;15.59;100.00
11314;BME280;5712;48.858;9.206;2022-10-16T02:23:12;98029.91;;;15.59;100.00
11314;BME280;5712;48.858;9.206;2022-10-16T02:25:45;98025.44;;;15.60;100.00
11314;BME280;5712;48.858;9.206;2022-10-16T02:28:17;98029.09;;;15.59;100.00
11314;BME280;5712;48.858;9.206;2022-10-16T02:30:49;98033.44;;;15.60;100.00
11314;BME280;5712;48.858;9.206;2022-10-16T02:33:18;98037.78;;;15.61;100.00
11314;BME280;5712;48.858;9.206;2022-10-16T02:35:48;98029.91;;;15.59;100.00
11314;BME280;5712;48.858;9.206;2022-10-16T02:38:17;98024.75;;;15.58;100.00
11314;BME280;5712;48.858;9.206;2022-10-16T02:40:44;98029.09;;;15.59;100.00
11314;BME280;5712;48.858;9.206;2022-10-16T02:43:11;98030.06;;;15.58;100.00
11314;BME280;5712;48.858;9.206;2022-10-16T02:45:38;98035.66;;;15.55;100.00
11314;BME280;5712;48.858;9.206;2022-10-16T02:48:07;98038.47;;;15.53;100.00
11314;BME280;5712;48.858;9.206;2022-10-16T02:50:33;98036.94;;;15.51;100.00
11314;BME280;5712;48.858;9.206;2022-10-16T02:53:00;98040.84;;;15.47;100.00
11314;BME280;5712;48.858;9.206;2022-10-16T02:55:27;98048.00;;;15.46;100.00
11314;BME280;5712;48.858;9.206;2022-10-16T02:57:54;98043.78;;;15.44;100.00
11314;BME280;5712;48.858;9.206;2022-10-16T03:00:21;98041.28;;;15.42;100.00
11314;BME280;5712;48.858;9.206;2022-10-16T03:02:47;98045.88;;;15.40;100.00
11314;BME280;5712;48.858;9.206;2022-10-16T03:05:16;98046.72;;;15.41;100.00
11314;BME280;5712;48.858;9.206;2022-10-16T03:07:42;98047.00;;;15.38;100.00
11314;BME280;5712;48.858;9.206;2022-10-16T03:10:09;98044.63;;;15.35;100.00
11314;BME280;5712;48.858;9.206;2022-10-16T03:12:35;98043.16;;;15.31;100.00
11314;BME280;5712;48.858;9.206;2022-10-16T03:15:03;98047.78;;;15.29;100.00
11314;BME280;5712;48.858;9.206;2022-10-16T03:17:31;98050.03;;;15.24;100.00
11314;BME280;5712;48.858;9.206;2022-10-16T03:19:58;98053.94;;;15.20;100.00
11314;BME280;5712;48.858;9.206;2022-10-16T03:22:26;98053.22;;;15.18;100.00
11314;BME280;5712;48.858;9.206;2022-10-16T03:24:52;98046.34;;;15.15;100.00
11314;BME280;5712;48.858;9.206;2022-10-16T03:27:20;98048.44;;;15.12;100.00
11314;BME280;5712;48.858;9.206;2022-10-16T03:29:47;98041.69;;;15.08;100.00
11314;BME280;5712;48.858;9.206;2022-10-16T03:32:13;98055.31;;;15.05;100.00
11314;BME280;5712;48.858;9.206;2022-10-16T03:34:40;98048.28;;;15.04;100.00
11314;BME280;5712;48.858;9.206;2022-10-16T03:37:06;98050.38;;;15.00;100.00
11314;BME280;5712;48.858;9.206;2022-10-16T03:39:34;98045.19;;;14.99;100.00
11314;BME280;5712;48.858;9.206;2022-10-16T03:42:01;98039.19;;;14.97;100.00
11314;BME280;5712;48.858;9.206;2022-10-16T03:44:28;98038.19;;;14.98;100.00
11314;BME280;5712;48.858;9.206;2022-10-16T03:46:54;98046.88;;;15.00;100.00
11314;BME280;5712;48.858;9.206;2022-10-16T03:49:21;98050.38;;;15.00;100.00
11314;BME280;5712;48.858;9.206;2022-10-16T03:51:48;98047.72;;;15.00;100.00
11314;BME280;5712;48.858;9.206;2022-10-16T03:54:14;98048.56;;;15.01;100.00
11314;BME280;5712;48.858;9.206;2022-10-16T03:56:42;98052.75;;;15.03;100.00
11314;BME280;5712;48.858;9.206;2022-10-16T03:59:09;98051.38;;;14.99;100.00
11314;BME280;5712;48.858;9.206;2022-10-16T04:01:35;98046.19;;;14.98;100.00
11314;BME280;5712;48.858;9.206;2022-10-16T04:04:02;98051.63;;;14.96;100.00
11314;BME280;5712;48.858;9.206;2022-10-16T04:06:29;98052.72;;;14.94;100.00
11314;BME280;5712;48.858;9.206;2022-10-16T04:08:55;98056.38;;;14.93;100.00
11314;BME280;5712;48.858;9.206;2022-10-16T04:11:22;98057.22;;;14.93;100.00
11314;BME280;5712;48.858;9.206;2022-10-16T04:13:50;98053.72;;;14.93;100.00
11314;BME280;5712;48.858;9.206;2022-10-16T04:16:17;98060.03;;;14.92;100.00
11314;BME280;5712;48.858;9.206;2022-10-16T04:18:43;98051.59;;;14.87;100.00
11314;BME280;5712;48.858;9.206;2022-10-16T04:21:10;98050.91;;;14.85;100.00
11314;BME280;5712;48.858;9.206;2022-10-16T04:23:37;98048.78;;;14.79;100.00
11314;BME280;5712;48.858;9.206;2022-10-16T04:26:03;98055.91;;;14.78;100.00
11314;BME280;5712;48.858;9.206;2022-10-16T04:28:30;98050.69;;;14.77;100.00
11314;BME280;5712;48.858;9.206;2022-10-16T04:30:58;98049.88;;;14.76;100.00
11314;BME280;5712;48.858;9.206;2022-10-16T04:33:24;98047.09;;;14.78;100.00
11314;BME280;5712;48.858;9.206;2022-10-16T04:35:56;98050.44;;;14.80;100.00
11314;BME280;5712;48.858;9.206;2022-10-16T04:38:23;98051.88;;;14.84;100.00
11314;BME280;5712;48.858;9.206;2022-10-16T04:40:49;98062.22;;;14.87;100.00
11314;BME280;5712;48.858;9.206;2022-10-16T04:43:16;98066.31;;;14.91;100.00
11314;BME280;5712;48.858;9.206;2022-10-16T04:45:42;98064.50;;;14.91;100.00
11314;BME280;5712;48.858;9.206;2022-10-16T04:48:11;98067.59;;;14.96;100.00
11314;BME280;5712;48.858;9.206;2022-10-16T04:50:37;98070.94;;;14.98;100.00
11314;BME280;5712;48.858;9.206;2022-10-16T04:53:04;98076.28;;;14.98;100.00
11314;BME280;5712;48.858;9.206;2022-10-16T04:55:31;98068.16;;;15.00;100.00
11314;BME280;5712;48.858;9.206;2022-10-16T04:57:58;98077.69;;;15.02;100.00
11314;BME280;5712;48.858;9.206;2022-10-16T05:00:25;98087.25;;;15.05;100.00
11314;BME280;5712;48.858;9.206;2022-10-16T05:02:51;98085.56;;;15.04;100.00
11314;BME280;5712;48.858;9.206;2022-10-16T05:05:20;98091.72;;;15.04;100.00
11314;BME280;5712;48.858;9.206;2022-10-16T05:07:46;98090.59;;;15.07;100.00
11314;BME280;5712;48.858;9.206;2022-10-16T05:10:14;98092.16;;;15.09;100.00
11314;BME280;5712;48.858;9.206;2022-10-16T05:12:41;98095.78;;;15.08;100.00
11314;BME280;5712;48.858;9.206;2022-10-16T05:15:09;98107.13;;;15.10;100.00
11314;BME280;5712;48.858;9.206;2022-10-16T05:17:35;98098.34;;;15.10;100.00
11314;BME280;5712;48.858;9.206;2022-10-16T05:20:03;98086.97;;;15.08;100.00
11314;BME280;5712;48.858;9.206;2022-10-16T05:22:31;98083.47;;;15.07;100.00
11314;BME280;5712;48.858;9.206;2022-10-16T05:24:57;98082.78;;;15.05;100.00
11314;BME280;5712;48.858;9.206;2022-10-16T05:27:24;98090.88;;;15.04;100.00
11314;BME280;5712;48.858;9.206;2022-10-16T05:29:51;98094.78;;;15.00;100.00
11314;BME280;5712;48.858;9.206;2022-10-16T05:32:18;98093.38;;;14.96;100.00
11314;BME280;5712;48.858;9.206;2022-10-16T05:34:45;98089.00;;;14.95;100.00
11314;BME280;5712;48.858;9.206;2022-10-16T05:37:12;98088.31;;;14.93;100.00
11314;BME280;5712;48.858;9.206;2022-10-16T05:39:40;98088.59;;;14.90;100.00
11314;BME280;5712;48.858;9.206;2022-10-16T05:42:07;98100.47;;;14.86;100.00
11314;BME280;5712;48.858;9.206;2022-10-16T05:44:33;98112.63;;;14.79;100.00
11314;BME280;5712;48.858;9.206;2022-10-16T05:47:00;98115.34;;;14.68;100.00
11314;BME280;5712;48.858;9.206;2022-10-16T05:49:27;98106.09;;;14.62;100.00
11314;BME280;5712;48.858;9.206;2022-10-16T05:51:54;98099.22;;;14.60;100.00
11314;BME280;5712;48.858;9.206;2022-10-16T05:54:20;98105.50;;;14.59;100.00
11314;BME280;5712;48.858;9.206;2022-10-16T05:56:48;98113.47;;;14.59;100.00
11314;BME280;5712;48.858;9.206;2022-10-16T05:59:15;98125.94;;;14.58;100.00
11314;BME280;5712;48.858;9.206;2022-10-16T06:01:41;98109.13;;;14.58;100.00
11314;BME280;5712;48.858;9.206;2022-10-16T06:04:08;98127.50;;;14.61;100.00
11314;BME280;5712;48.858;9.206;2022-10-16T06:06:35;98112.25;;;14.63;100.00
11314;BME280;5712;48.858;9.206;2022-10-16T06:09:02;98125.31;;;14.66;100.00
11314;BME280;5712;48.858;9.206;2022-10-16T06:11:31;98136.63;;;14.68;100.00
11314;BME280;5712;48.858;9.206;2022-10-16T06:14:01;98133.13;;;14.67;100.00
11314;BME280;5712;48.858;9.206;2022-10-16T06:16:32;98130.22;;;14.70;100.00
11314;BME280;5712;48.858;9.206;2022-10-16T06:18:59;98130.09;;;14.72;100.00
11314;BME280;5712;48.858;9.206;2022-10-16T06:21:27;98130.78;;;14.74;100.00
11314;BME280;5712;48.858;9.206;2022-10-16T06:23:55;98143.97;;;14.75;100.00
11314;BME280;5712;48.858;9.206;2022-10-16T06:26:24;98140.22;;;14.78;100.00
11314;BME280;5712;48.858;9.206;2022-10-16T06:28:51;98142.59;;;14.81;100.00
11314;BME280;5712;48.858;9.206;2022-10-16T06:31:19;98142.34;;;14.84;100.00
11314;BME280;5712;48.858;9.206;2022-10-16T06:33:50;98134.09;;;14.87;100.00
11314;BME280;5712;48.858;9.206;2022-10-16T06:36:17;98145.44;;;14.89;100.00
11314;BME280;5712;48.858;9.206;2022-10-16T06:38:44;98137.19;;;14.92;100.00
11314;BME280;5712;48.858;9.206;2022-10-16T06:41:13;98143.09;;;14.95;100.00
11314;BME280;5712;48.858;9.206;2022-10-16T06:43:40;98140.16;;;14.98;100.00
11314;BME280;5712;48.858;9.206;2022-10-16T06:46:07;98140.75;;;15.02;100.00
11314;BME280;5712;48.858;9.206;2022-10-16T06:48:37;98149.16;;;15.07;100.00
11314;BME280;5712;48.858;9.206;2022-10-16T06:51:05;98161.25;;;15.11;100.00
11314;BME280;5712;48.858;9.206;2022-10-16T06:53:34;98167.13;;;15.14;100.00
11314;BME280;5712;48.858;9.206;2022-10-16T06:56:07;98165.06;;;15.18;100.00
11314;BME280;5712;48.858;9.206;2022-10-16T06:58:33;98172.78;;;15.21;100.00
11314;BME280;5712;48.858;9.206;2022-10-16T07:01:00;98168.84;;;15.25;100.00
11314;BME280;5712;48.858;9.206;2022-10-16T07:03:27;98175.63;;;15.29;100.00
11314;BME280;5712;48.858;9.206;2022-10-16T07:05:55;98182.81;;;15.38;100.00
11314;BME280;5712;48.858;9.206;2022-10-16T07:08:21;98187.47;;;15.45;100.00
11314;BME280;5712;48.858;9.206;2022-10-16T07:10:48;98183.03;;;15.55;100.00
11314;BME280;5712;48.858;9.206;2022-10-16T07:13:15;98197.38;;;15.64;100.00
11314;BME280;5712;48.858;9.206;2022-10-16T07:15:41;98200.19;;;15.72;100.00
11314;BME280;5712;48.858;9.206;2022-10-16T07:18:08;98199.66;;;15.78;100.00
11314;BME280;5712;48.858;9.206;2022-10-16T07:20:35;98202.88;;;15.81;100.00
11314;BME280;5712;48.858;9.206;2022-10-16T07:23:04;98211.44;;;15.85;100.00
11314;BME280;5712;48.858;9.206;2022-10-16T07:25:30;98210.75;;;15.83;100.00
11314;BME280;5712;48.858;9.206;2022-10-16T07:27:57;98211.72;;;15.82;100.00
11314;BME280;5712;48.858;9.206;2022-10-16T07:30:23;98221.41;;;15.83;100.00
11314;BME280;5712;48.858;9.206;2022-10-16T07:32:50;98219.84;;;15.80;100.00
11314;BME280;5712;48.858;9.206;2022-10-16T07:35:17;98223.50;;;15.79;100.00
11314;BME280;5712;48.858;9.206;2022-10-16T07:37:44;98231.50;;;15.79;100.00
11314;BME280;5712;48.858;9.206;2022-10-16T07:40:13;98231.88;;;15.75;100.00
11314;BME280;5712;48.858;9.206;2022-10-16T07:42:39;98229.38;;;15.73;100.00
11314;BME280;5712;48.858;9.206;2022-10-16T07:45:06;98220.66;;;15.71;100.00
11314;BME280;5712;48.858;9.206;2022-10-16T07:47:33;98211.72;;;15.72;100.00
11314;BME280;5712;48.858;9.206;2022-10-16T07:50:00;98232.59;;;15.77;100.00
11314;BME280;5712;48.858;9.206;2022-10-16T07:52:26;98231.34;;;15.81;100.00
11314;BME280;5712;48.858;9.206;2022-10-16T07:54:53;98233.47;;;15.87;100.00
11314;BME280;5712;48.858;9.206;2022-10-16T07:57:21;98229.13;;;15.95;100.00
11314;BME280;5712;48.858;9.206;2022-10-16T07:59:48;98243.22;;;16.07;100.00
11314;BME280;5712;48.858;9.206;2022-10-16T08:02:14;98246.03;;;16.14;100.00
11314;BME280;5712;48.858;9.206;2022-10-16T08:04:41;98247.72;;;16.25;100.00
11314;BME280;5712;48.858;9.206;2022-10-16T08:07:07;98241.28;;;16.37;100.00
11314;BME280;5712;48.858;9.206;2022-10-16T08:09:34;98235.41;;;16.43;100.00
11314;BME280;5712;48.858;9.206;2022-10-16T08:12:01;98241.06;;;16.49;100.00
11314;BME280;5712;48.858;9.206;2022-10-16T08:14:30;98242.59;;;16.52;100.00
11314;BME280;5712;48.858;9.206;2022-10-16T08:16:57;98247.22;;;16.59;100.00
11314;BME280;5712;48.858;9.206;2022-10-16T08:19:24;98253.41;;;16.69;100.00
11314;BME280;5712;48.858;9.206;2022-10-16T08:21:50;98245.81;;;16.74;100.00
11314;BME280;5712;48.858;9.206;2022-10-16T08:24:17;98243.28;;;16.82;100.00
11314;BME280;5712;48.858;9.206;2022-10-16T08:26:44;98256.19;;;16.96;100.00
11314;BME280;5712;48.858;9.206;2022-10-16T08:29:10;98251.97;;;17.13;100.00
11314;BME280;5712;48.858;9.206;2022-10-16T08:31:38;98259.25;;;17.39;100.00
11314;BME280;5712;48.858;9.206;2022-10-16T08:34:05;98267.28;;;17.66;100.00
11314;BME280;5712;48.858;9.206;2022-10-16T08:36:32;98271.16;;;17.91;100.00
11314;BME280;5712;48.858;9.206;2022-10-16T08:38:58;98274.69;;;18.09;100.00
11314;BME280;5712;48.858;9.206;2022-10-16T08:41:53;98272.28;;;18.15;100.00
11314;BME280;5712;48.858;9.206;2022-10-16T08:44:42;98263.03;;;18.27;100.00
11314;BME280;5712;48.858;9.206;2022-10-16T08:47:17;98261.88;;;18.39;100.00
11314;BME280;5712;48.858;9.206;2022-10-16T08:49:55;98269.06;;;18.56;100.00
11314;BME280;5712;48.858;9.206;2022-10-16T08:52:25;98260.50;;;18.70;100.00
11314;BME280;5712;48.858;9.206;2022-10-16T08:54:55;98257.47;;;18.83;100.00
11314;BME280;5712;48.858;9.206;2022-10-16T08:57:24;98251.41;;;18.98;100.00
11314;BME280;5712;48.858;9.206;2022-10-16T08:59:52;98251.31;;;19.08;100.00
11314;BME280;5712;48.858;9.206;2022-10-16T09:02:26;98252.44;;;19.05;100.00
11314;BME280;5712;48.858;9.206;2022-10-16T09:05:09;98257.44;;;19.00;100.00
11314;BME280;5712;48.858;9.206;2022-10-16T09:07:46;98261.09;;;18.99;100.00
11314;BME280;5712;48.858;9.206;2022-10-16T09:10:27;98259.63;;;19.05;100.00
11314;BME280;5712;48.858;9.206;2022-10-16T09:13:07;98253.75;;;19.01;100.00
11314;BME280;5712;48.858;9.206;2022-10-16T09:15:43;98261.41;;;18.96;100.00
11314;BME280;5712;48.858;9.206;2022-10-16T09:18:17;98270.75;;;18.92;100.00
11314;BME280;5712;48.858;9.206;2022-10-16T09:20:50;98262.41;;;18.95;100.00
11314;BME280;5712;48.858;9.206;2022-10-16T09:23:21;98264.59;;;19.00;100.00
11314;BME280;5712;48.858;9.206;2022-10-16T09:25:52;98270.44;;;18.95;100.00
11314;BME280;5712;48.858;9.206;2022-10-16T09:28:20;98285.13;;;18.91;100.00
11314;BME280;5712;48.858;9.206;2022-10-16T09:30:47;98291.81;;;18.87;100.00
11314;BME280;5712;48.858;9.206;2022-10-16T09:33:17;98288.75;;;18.82;100.00
11314;BME280;5712;48.858;9.206;2022-10-16T09:35:47;98293.41;;;18.80;100.00
11314;BME280;5712;48.858;9.206;2022-10-16T09:38:25;98314.06;;;18.70;100.00
11314;BME280;5712;48.858;9.206;2022-10-16T09:40:54;98304.50;;;18.68;100.00
11314;BME280;5712;48.858;9.206;2022-10-16T09:43:24;98297.22;;;18.60;100.00
11314;BME280;5712;48.858;9.206;2022-10-16T09:45:57;98308.84;;;18.51;100.00
11314;BME280;5712;48.858;9.206;2022-10-16T09:48:28;98309.72;;;18.42;100.00
11314;BME280;5712;48.858;9.206;2022-10-16T09:50:59;98308.38;;;18.38;100.00
11314;BME280;5712;48.858;9.206;2022-10-16T09:53:37;98309.72;;;18.42;100.00
11314;BME280;5712;48.858;9.206;2022-10-16T09:56:04;98307.75;;;18.44;100.00
11314;BME280;5712;48.858;9.206;2022-10-16T09:58:32;98309.13;;;18.48;100.00
11314;BME280;5712;48.858;9.206;2022-10-16T10:00:58;98305.94;;;18.62;100.00
11314;BME280;5712;48.858;9.206;2022-10-16T10:03:37;98314.53;;;18.83;100.00
11314;BME280;5712;48.858;9.206;2022-10-16T10:06:15;98319.44;;;19.05;100.00
11314;BME280;5712;48.858;9.206;2022-10-16T10:08:54;98311.00;;;19.35;100.00
11314;BME280;5712;48.858;9.206;2022-10-16T10:11:36;98313.47;;;19.54;100.00
11314;BME280;5712;48.858;9.206;2022-10-16T10:14:04;98307.88;;;19.65;97.22
11314;BME280;5712;48.858;9.206;2022-10-16T10:16:31;98310.22;;;19.68;96.62
11314;BME280;5712;48.858;9.206;2022-10-16T10:19:00;98298.81;;;19.66;96.12
11314;BME280;5712;48.858;9.206;2022-10-16T10:21:26;98304.47;;;19.63;96.42
11314;BME280;5712;48.858;9.206;2022-10-16T10:23:55;98303.31;;;19.66;95.07
11314;BME280;5712;48.858;9.206;2022-10-16T10:26:24;98309.09;;;19.79;94.49
11314;BME280;5712;48.858;9.206;2022-10-16T10:29:00;98296.34;;;20.06;93.71
11314;BME280;5712;48.858;9.206;2022-10-16T10:31:35;98289.84;;;20.50;92.64
11314;BME280;5712;48.858;9.206;2022-10-16T10:34:32;98275.66;;;20.90;90.05
11314;BME280;5712;48.858;9.206;2022-10-16T10:37:22;98261.88;;;21.33;86.15
11314;BME280;5712;48.858;9.206;2022-10-16T10:39:56;98270.06;;;21.63;84.84
11314;BME280;5712;48.858;9.206;2022-10-16T10:42:29;98264.00;;;21.85;83.83
11314;BME280;5712;48.858;9.206;2022-10-16T10:45:13;98261.53;;;22.06;82.69
11314;BME280;5712;48.858;9.206;2022-10-16T10:47:49;98265.84;;;22.23;81.91
11314;BME280;5712;48.858;9.206;2022-10-16T10:50:26;98264.41;;;22.43;80.89
11314;BME280;5712;48.858;9.206;2022-10-16T10:53:00;98262.66;;;22.58;77.82
11314;BME280;5712;48.858;9.206;2022-10-16T10:55:39;98253.09;;;22.78;76.64
11314;BME280;5712;48.858;9.206;2022-10-16T10:58:31;98255.84;;;22.93;77.90
11314;BME280;5712;48.858;9.206;2022-10-16T11:01:07;98249.56;;;23.00;76.27
11314;BME280;5712;48.858;9.206;2022-10-16T11:03:46;98250.56;;;22.99;76.20
11314;BME280;5712;48.858;9.206;2022-10-16T11:06:26;98242.44;;;22.85;75.60
11314;BME280;5712;48.858;9.206;2022-10-16T11:08:59;98245.91;;;22.71;75.03
11314;BME280;5712;48.858;9.206;2022-10-16T11:11:31;98253.09;;;22.56;75.34
11314;BME280;5712;48.858;9.206;2022-10-16T11:14:05;98239.84;;;22.46;74.07
11314;BME280;5712;48.858;9.206;2022-10-16T11:16:35;98230.78;;;22.31;73.81
11314;BME280;5712;48.858;9.206;2022-10-16T11:19:11;98248.66;;;22.24;75.49
11314;BME280;5712;48.858;9.206;2022-10-16T11:21:44;98250.06;;;22.12;76.23
11314;BME280;5712;48.858;9.206;2022-10-16T11:24:19;98245.75;;;22.03;76.35
11314;BME280;5712;48.858;9.206;2022-10-16T11:26:48;98246.09;;;22.00;76.86
11314;BME280;5712;48.858;9.206;2022-10-16T11:29:20;98234.72;;;21.90;76.16
11314;BME280;5712;48.858;9.206;2022-10-16T11:31:52;98238.75;;;21.86;76.04
11314;BME280;5712;48.858;9.206;2022-10-16T11:34:24;98246.50;;;21.81;77.41
11314;BME280;5712;48.858;9.206;2022-10-16T11:36:57;98260.97;;;21.80;78.76
11314;BME280;5712;48.858;9.206;2022-10-16T11:39:27;98255.41;;;21.82;78.55
11314;BME280;5712;48.858;9.206;2022-10-16T11:42:01;98242.09;;;21.88;77.10
11314;BME280;5712;48.858;9.206;2022-10-16T11:44:45;98249.16;;;21.97;77.44
11314;BME280;5712;48.858;9.206;2022-10-16T11:47:24;98243.41;;;22.00;75.71
11314;BME280;5712;48.858;9.206;2022-10-16T11:49:58;98239.41;;;21.96;76.16
11314;BME280;5712;48.858;9.206;2022-10-16T11:52:35;98238.38;;;21.97;75.18
11314;BME280;5712;48.858;9.206;2022-10-16T11:55:08;98221.41;;;21.89;73.37
11314;BME280;5712;48.858;9.206;2022-10-16T11:57:43;98224.28;;;21.87;72.60
11314;BME280;5712;48.858;9.206;2022-10-16T12:00:20;98224.56;;;22.00;72.48
11314;BME280;5712;48.858;9.206;2022-10-16T12:02:55;98229.50;;;22.19;73.05
11314;BME280;5712;48.858;9.206;2022-10-16T12:05:29;98202.31;;;22.45;69.36
11314;BME280;5712;48.858;9.206;2022-10-16T12:08:08;98183.03;;;22.56;66.83
11314;BME280;5712;48.858;9.206;2022-10-16T12:10:37;98202.19;;;22.61;68.10
11314;BME280;5712;48.858;9.206;2022-10-16T12:13:05;98190.03;;;22.65;67.63
11314;BME280;5712;48.858;9.206;2022-10-16T12:15:51;98211.41;;;22.66;70.21
11314;BME280;5712;48.858;9.206;2022-10-16T12:18:21;98215.84;;;22.59;70.99
11314;BME280;5712;48.858;9.206;2022-10-16T12:20:54;98205.41;;;22.56;69.74
11314;BME280;5712;48.858;9.206;2022-10-16T12:23:25;98209.59;;;22.59;70.48
11314;BME280;5712;48.858;9.206;2022-10-16T12:25:54;98198.00;;;22.58;69.08
11314;BME280;5712;48.858;9.206;2022-10-16T12:28:25;98195.50;;;22.57;67.91
11314;BME280;5712;48.858;9.206;2022-10-16T12:30:54;98213.88;;;22.53;69.99
11314;BME280;5712;48.858;9.206;2022-10-16T12:33:24;98221.00;;;22.46;71.05
11314;BME280;5712;48.858;9.206;2022-10-16T12:35:51;98209.25;;;22.31;69.66
11314;BME280;5712;48.858;9.206;2022-10-16T12:38:19;98206.25;;;22.26;69.54
11314;BME280;5712;48.858;9.206;2022-10-16T12:40:57;98204.44;;;22.49;68.15
11314;BME280;5712;48.858;9.206;2022-10-16T12:43:34;98196.34;;;22.57;66.50
11314;BME280;5712;48.858;9.206;2022-10-16T12:46:05;98187.22;;;22.58;66.02
11314;BME280;5712;48.858;9.206;2022-10-16T12:48:32;98195.81;;;22.54;65.89
11314;BME280;5712;48.858;9.206;2022-10-16T12:51:10;98208.09;;;22.56;67.68
11314;BME280;5712;48.858;9.206;2022-10-16T12:53:37;98195.38;;;22.73;66.64
11314;BME280;5712;48.858;9.206;2022-10-16T12:56:19;98199.41;;;22.91;65.56
11314;BME280;5712;48.858;9.206;2022-10-16T12:59:02;98200.78;;;22.87;65.14
11314;BME280;5712;48.858;9.206;2022-10-16T13:01:40;98186.97;;;22.90;63.64
11314;BME280;5712;48.858;9.206;2022-10-16T13:04:31;98207.22;;;22.86;65.26
11314;BME280;5712;48.858;9.206;2022-10-16T13:07:15;98206.75;;;22.60;65.12
11314;BME280;5712;48.858;9.206;2022-10-16T13:09:56;98207.03;;;22.65;65.45
11314;BME280;5712;48.858;9.206;2022-10-16T13:12:45;98208.22;;;22.85;65.31
11314;BME280;5712;48.858;9.206;2022-10-16T13:15:24;98212.94;;;23.06;65.54
11314;BME280;5712;48.858;9.206;2022-10-16T13:18:00;98226.72;;;23.33;66.28